Time;durP1;ratioP1;P1;durP2;ratioP2;P2;SDS_P1;SDS_P2;PMS_P1;PMS_P2;Temp;Humidity;BMP_temperature;BMP_pressure;BME280_temperature;BME280_humidity;BME280_pressure;Samples;Min_cycle;Max_cycle;Signal;HPM_P1;HPM_P2
2023/04/16 00:01:06;;;;;;;6.47;4.47;;;3.20;1.00;;;;;;8308633;28;20195;-83
2023/04/16 00:05:18;;;;;;;5.67;4.10;;;3.20;77.40;;;;;;8411086;23;20268;-69
2023/04/16 00:09:26;;;;;;;6.43;4.67;;;3.20;99.90;;;;;;8286139;28;20199;-70
2023/04/16 00:14:03;;;;;;;7.03;4.13;;;3.10;99.90;;;;;;8302717;28;20249;-71
2023/04/16 00:18:04;;;;;;;6.97;4.13;;;3.00;99.90;;;;;;8199233;28;20201;-70
2023/04/16 00:22:05;;;;;;;6.90;5.13;;;2.90;99.90;;;;;;8199565;28;20198;-70
2023/04/16 00:26:16;;;;;;;7.70;5.90;;;2.90;99.90;;;;;;8206468;28;20266;-70
2023/04/16 00:30:53;;;;;;;29.17;15.10;;;2.80;99.90;;;;;;8206121;28;20204;-69
2023/04/16 00:34:56;;;;;;;23.77;12.37;;;2.90;99.90;;;;;;8143667;28;20196;-69
2023/04/16 00:39:08;;;;;;;23.70;12.30;;;3.00;99.90;;;;;;8188622;28;20193;-70
2023/04/16 00:43:18;;;;;;;19.40;12.00;;;3.00;99.90;;;;;;8258617;28;20243;-70
2023/04/16 00:47:39;;;;;;;17.67;9.73;;;3.00;99.90;;;;;;8285124;28;20273;-70
2023/04/16 00:51:55;;;;;;;;;;;;;;;;;;;;;
2023/04/16 00:56:03;;;;;;;11.33;7.47;;;2.90;99.90;;;;;;8292379;28;20245;-70
2023/04/16 01:00:04;;;;;;;11.53;6.93;;;2.80;99.90;;;;;;8290608;28;20193;-70
2023/04/16 01:04:06;;;;;;;17.23;11.17;;;2.70;99.90;;;;;;8300296;28;20243;-70
2023/04/16 01:08:17;;;;;;;17.50;11.93;;;2.80;99.90;;;;;;8287839;28;20213;-70
2023/04/16 01:12:24;;;;;;;27.43;16.20;;;2.90;99.90;;;;;;8295744;28;20217;-70
2023/04/16 01:16:31;;;;;;;22.07;15.37;;;3.00;99.90;;;;;;8299260;28;20197;-70
2023/04/16 01:20:49;;;;;;;22.23;15.23;;;3.10;99.90;;;;;;8282621;28;20199;-71
2023/04/16 01:24:53;;;;;;;18.57;13.33;;;3.10;99.90;;;;;;8292716;28;20219;-69
2023/04/16 01:28:56;;;;;;;19.80;14.10;;;3.10;99.90;;;;;;8296973;28;20186;-70
2023/04/16 01:33:00;;;;;;;22.73;16.00;;;3.10;99.90;;;;;;8294409;28;20248;-70
2023/04/16 01:37:07;;;;;;;22.33;14.83;;;3.30;99.90;;;;;;8298687;28;20190;-70
2023/04/16 01:41:14;;;;;;;23.53;14.60;;;3.50;99.90;;;;;;8296508;28;20179;-69
2023/04/16 01:45:31;;;;;;;;;;;;;;;;;;;;;
2023/04/16 01:49:34;;;;;;;28.50;17.20;;;3.90;99.90;;;;;;8294162;28;20214;-69
2023/04/16 01:58:13;;;;;;;48.70;21.70;;;4.60;99.90;;;;;;8295557;28;20210;-69
2023/04/16 02:02:28;;;;;;;38.60;20.67;;;4.80;99.90;;;;;;8288583;28;20209;-69
2023/04/16 02:06:36;;;;;;;40.73;21.80;;;5.00;99.90;;;;;;8293942;28;20203;-68
2023/04/16 02:10:40;;;;;;;40.17;20.70;;;5.20;99.90;;;;;;8293609;28;20221;-70
2023/04/16 02:14:52;;;;;;;32.97;18.90;;;5.30;99.90;;;;;;8288189;28;20226;-68
2023/04/16 02:18:55;;;;;;;40.13;18.23;;;5.40;99.90;;;;;;8291711;28;20194;-69
2023/04/16 02:23:17;;;;;;;35.57;18.30;;;5.40;99.90;;;;;;8314321;28;20202;-69
2023/04/16 02:27:25;;;;;;;44.30;18.07;;;5.40;99.90;;;;;;8305040;28;20179;-69
2023/04/16 02:31:27;;;;;;;31.77;15.93;;;5.50;99.90;;;;;;8309647;28;20213;-68
2023/04/16 02:35:48;;;;;;;26.63;15.57;;;5.50;99.90;;;;;;8306395;28;20191;-69
2023/04/16 02:40:01;;;;;;;30.73;15.57;;;5.60;99.90;;;;;;8285837;28;20202;-68
2023/04/16 02:44:05;;;;;;;31.93;15.97;;;5.70;99.90;;;;;;8288941;28;20219;-69
2023/04/16 02:48:21;;;;;;;31.27;14.57;;;5.70;99.90;;;;;;8271302;28;20199;-69
2023/04/16 02:52:45;;;;;;;29.07;15.90;;;5.70;99.90;;;;;;8276367;28;20198;-70
2023/04/16 02:57:02;;;;;;;28.60;15.27;;;5.70;99.90;;;;;;8313465;23;20231;-72
2023/04/16 03:01:20;;;;;;;44.97;13.70;;;5.70;99.90;;;;;;8372614;28;20239;-71
2023/04/16 03:05:37;;;;;;;28.27;14.40;;;5.70;99.90;;;;;;8375309;28;20224;-71
2023/04/16 03:09:43;;;;;;;42.70;15.43;;;5.70;99.90;;;;;;8369553;28;20246;-69
2023/04/16 03:14:01;;;;;;;19.63;13.17;;;5.70;99.90;;;;;;8379770;28;20197;-68
2023/04/16 03:18:13;;;;;;;60.57;14.03;;;5.70;99.90;;;;;;8379011;28;20193;-71
2023/04/16 03:22:20;;;;;;;19.90;11.77;;;5.70;99.90;;;;;;8372099;28;20194;-70
2023/04/16 03:26:37;;;;;;;35.13;12.57;;;5.70;99.90;;;;;;8377640;28;20217;-69
2023/04/16 03:30:53;;;;;;;42.37;14.80;;;5.70;99.90;;;;;;8364077;28;20262;-68
2023/04/16 03:35:23;;;;;;;44.63;11.90;;;5.70;99.90;;;;;;8374033;28;20296;-70
2023/04/16 03:39:38;;;;;;;33.90;11.60;;;5.70;99.90;;;;;;8363637;28;20204;-70
2023/04/16 03:43:45;;;;;;;16.77;10.77;;;5.70;99.90;;;;;;8367917;28;20240;-70
2023/04/16 03:47:56;;;;;;;15.17;10.07;;;5.70;99.90;;;;;;8367927;28;20272;-71
2023/04/16 03:52:19;;;;;;;14.60;10.00;;;5.70;99.90;;;;;;8388287;28;20185;-69
2023/04/16 03:56:49;;;;;;;19.83;10.30;;;5.80;99.90;;;;;;8372641;28;20212;-70
2023/04/16 04:01:09;;;;;;;15.53;9.67;;;5.80;99.90;;;;;;8384036;28;20185;-70
2023/04/16 04:09:56;;;;;;;55.37;13.50;;;5.80;99.90;;;;;;8370808;28;20300;-70
2023/04/16 04:14:04;;;;;;;14.67;10.47;;;5.80;99.90;;;;;;8383689;28;20204;-70
2023/04/16 04:18:29;;;;;;;17.20;11.77;;;5.80;99.90;;;;;;8373412;28;20204;-71
2023/04/16 04:22:39;;;;;;;28.00;16.63;;;5.90;99.90;;;;;;8381430;28;20185;-70
2023/04/16 04:26:56;;;;;;;35.40;18.37;;;5.90;99.90;;;;;;8382775;28;20184;-71
2023/04/16 04:31:19;;;;;;;31.43;20.83;;;6.00;99.90;;;;;;8376954;28;20189;-70
2023/04/16 04:35:21;;;;;;;35.07;21.60;;;6.00;99.90;;;;;;8373752;28;20215;-70
2023/04/16 04:39:23;;;;;;;88.87;33.17;;;6.10;99.90;;;;;;8383952;28;20197;-70
2023/04/16 04:43:26;;;;;;;92.30;32.60;;;5.90;99.90;;;;;;8384051;28;20205;-69
2023/04/16 04:47:46;;;;;;;65.90;35.00;;;5.80;99.90;;;;;;8382969;28;20193;-69
2023/04/16 04:52:19;;;;;;;87.83;36.37;;;5.80;99.90;;;;;;8379248;28;20189;-70
2023/04/16 04:56:44;;;;;;;100.60;37.87;;;6.00;99.90;;;;;;8357866;28;20263;-69
2023/04/16 05:00:55;;;;;;;51.67;30.97;;;6.10;99.90;;;;;;8365261;28;20215;-71
2023/04/16 05:05:11;;;;;;;47.33;27.77;;;6.20;99.90;;;;;;8377782;28;20251;-71
2023/04/16 05:14:00;;;;;;;40.87;22.27;;;6.50;99.90;;;;;;8378618;28;20204;-70
2023/04/16 05:18:22;;;;;;;52.57;23.27;;;6.70;99.90;;;;;;8388747;27;20192;-70
2023/04/16 05:22:23;;;;;;;32.70;20.43;;;6.70;99.90;;;;;;8391601;27;20190;-70
2023/04/16 05:26:35;;;;;;;28.70;17.47;;;6.70;99.90;;;;;;8380105;28;20223;-70
2023/04/16 05:30:42;;;;;;;29.37;17.67;;;6.90;99.90;;;;;;8363798;28;20410;-71
2023/04/16 05:35:02;;;;;;;;;;;;;;;;;;;;;
2023/04/16 05:39:23;;;;;;;25.87;16.30;;;7.30;99.90;;;;;;8376976;28;20204;-71
2023/04/16 05:43:45;;;;;;;27.47;16.30;;;7.40;99.90;;;;;;8378915;28;20200;-71
2023/04/16 05:48:02;;;;;;;24.83;15.67;;;7.50;99.90;;;;;;8381888;28;20180;-71
2023/04/16 05:52:15;;;;;;;29.30;18.60;;;7.70;99.90;;;;;;8377757;28;20223;-72
2023/04/16 05:56:22;;;;;;;27.13;17.13;;;7.80;99.90;;;;;;8373280;28;20208;-71
2023/04/16 06:00:36;;;;;;;26.53;17.53;;;7.90;99.90;;;;;;8379215;28;20197;-72
2023/04/16 06:05:02;;;;;;;25.33;15.80;;;8.10;99.90;;;;;;8307800;28;20214;-70
2023/04/16 06:09:45;;;;;;;22.83;15.13;;;8.30;99.90;;;;;;8305092;28;20280;-72
2023/04/16 06:19:21;;;;;;;22.00;13.33;;;8.90;99.90;;;;;;8311262;28;20218;-71
2023/04/16 06:23:34;;;;;;;16.60;12.90;;;9.30;99.90;;;;;;8295282;28;20230;-71
2023/04/16 06:28:07;;;;;;;13.20;10.73;;;9.60;99.90;;;;;;8317524;28;20225;-71
2023/04/16 06:32:11;;;;;;;12.47;10.13;;;10.00;99.90;;;;;;8296868;28;20225;-71
2023/04/16 06:36:15;;;;;;;12.97;9.43;;;10.50;99.90;;;;;;8292609;28;20201;-69
2023/04/16 06:45:29;;;;;;;9.03;8.00;;;11.10;99.90;;;;;;8305882;28;20253;-71
2023/04/16 06:55:09;;;;;;;;;;;;;;;;;;;;;
2023/04/16 06:59:39;;;;;;;10.60;7.67;;;11.30;1.00;;;;;;8349783;28;20235;-72
2023/04/16 07:03:50;;;;;;;13.27;10.27;;;11.40;99.90;;;;;;8343389;28;20232;-72
2023/04/16 07:08:08;;;;;;;9.53;7.70;;;11.50;1.00;;;;;;8356684;28;20296;-71
2023/04/16 07:12:22;;;;;;;11.53;10.30;;;11.70;99.90;;;;;;8356828;28;20186;-71
2023/04/16 07:16:50;;;;;;;10.80;8.13;;;12.00;99.90;;;;;;8348128;28;20193;-72
2023/04/16 07:21:26;;;;;;;11.13;8.47;;;12.40;99.90;;;;;;8346405;28;20208;-71
2023/04/16 07:26:18;;;;;;;10.60;8.87;;;12.30;99.90;;;;;;8354956;28;20210;-71
2023/04/16 07:30:39;;;;;;;12.00;9.53;;;12.00;99.90;;;;;;8311198;28;20188;-70
2023/04/16 07:35:03;;;;;;;10.57;8.33;;;11.20;99.90;;;;;;8318048;28;20421;-69
2023/04/16 07:39:05;;;;;;;11.20;8.60;;;11.30;99.90;;;;;;8307626;28;20193;-71
2023/04/16 07:43:24;;;;;;;12.60;10.27;;;10.90;1.00;;;;;;8325261;28;20399;-70
2023/04/16 07:52:33;;;;;;;;;;;;;;;;;;;;;
2023/04/16 08:06:51;;;;;;;11.47;9.87;;;9.90;99.90;;;;;;8314757;28;20301;-70
2023/04/16 08:11:21;;;;;;;12.37;9.77;;;9.80;99.90;;;;;;8258547;28;20234;-71
2023/04/16 08:15:25;;;;;;;12.93;9.60;;;10.30;1.00;;;;;;8293952;28;20208;-72
2023/04/16 08:19:37;;;;;;;12.57;10.07;;;10.70;1.00;;;;;;8311228;28;20239;-71
2023/04/16 08:23:38;;;;;;;10.83;9.47;;;11.00;93.80;;;;;;8375626;28;20205;-72
2023/04/16 08:28:37;;;;;;;12.50;10.33;;;10.80;99.90;;;;;;8347908;28;20207;-73
2023/04/16 08:38:16;;;;;;;;;;;;;;;;;;;;;
2023/04/16 08:42:42;;;;;;;;;;;;;;;;;;;;;
2023/04/16 08:47:09;;;;;;;13.77;11.43;;;11.70;1.00;;;;;;8178557;28;20231;-73
2023/04/16 08:51:33;;;;;;;10.87;9.40;;;11.70;1.00;;;;;;8174566;28;20200;-73
2023/04/16 08:55:59;;;;;;;10.27;8.67;;;12.00;1.00;;;;;;8285612;28;20231;-73
2023/04/16 09:00:20;;;;;;;11.77;9.70;;;12.80;99.90;;;;;;8345978;28;20186;-72
2023/04/16 09:04:43;;;;;;;11.23;8.77;;;13.60;99.90;;;;;;8349938;28;20270;-73
2023/04/16 09:09:07;;;;;;;;;;;;;;;;;;;;;
2023/04/16 09:13:36;;;;;;;11.37;9.87;;;14.70;99.90;;;;;;8342370;28;20229;-73
2023/04/16 09:17:46;;;;;;;10.13;8.97;;;14.50;99.90;;;;;;8351950;28;20375;-72
2023/04/16 09:21:51;;;;;;;9.00;8.10;;;14.70;99.00;;;;;;8361185;28;20190;-71
2023/04/16 09:26:19;;;;;;;7.23;6.53;;;15.00;88.50;;;;;;8354935;28;20248;-74
2023/04/16 09:30:58;;;;;;;9.17;8.07;;;15.30;68.70;;;;;;8354069;28;20248;-72
2023/04/16 09:35:03;;;;;;;10.20;9.00;;;15.60;48.50;;;;;;8352103;28;20206;-73
2023/04/16 09:39:28;;;;;;;9.63;8.53;;;15.90;27.80;;;;;;8347487;28;20198;-69
2023/04/16 09:43:46;;;;;;;8.57;7.67;;;16.20;1.00;;;;;;8342955;28;20226;-69
2023/04/16 09:48:12;;;;;;;10.47;9.37;;;16.70;1.00;;;;;;8348141;28;20201;-68
2023/04/16 09:52:44;;;;;;;9.87;8.87;;;16.50;1.00;;;;;;8345096;28;20220;-70
2023/04/16 10:01:52;;;;;;;;;;;;;;;;;;;;;
2023/04/16 10:15:39;;;;;;;;;;;;;;;;;;;;;
2023/04/16 10:19:51;;;;;;;8.83;6.80;;;14.50;45.00;;;;;;8224415;28;20254;-69
2023/04/16 10:23:56;;;;;;;6.30;5.70;;;15.40;25.90;;;;;;8239802;28;20232;-68
2023/04/16 10:28:34;;;;;;;6.07;5.47;;;16.20;1.00;;;;;;8366057;28;20229;-74
2023/04/16 10:37:39;;;;;;;10.43;8.10;;;16.70;1.00;;;;;;8361716;28;20209;-73
2023/04/16 10:42:27;;;;;;;7.53;6.30;;;16.10;1.00;;;;;;8377696;28;20207;-73
2023/04/16 10:47:31;;;;;;;7.00;6.03;;;15.60;1.00;;;;;;8378135;28;20257;-74
2023/04/16 10:52:31;;;;;;;;;;;;;;;;;;;;;
2023/04/16 10:56:40;;;;;;;5.37;4.70;;;16.50;1.00;;;;;;8374154;28;20217;-72
2023/04/16 11:01:37;;;;;;;4.17;3.77;;;16.90;1.00;;;;;;8370513;28;20196;-73
2023/04/16 11:05:55;;;;;;;6.40;5.00;;;17.60;1.00;;;;;;8370527;28;20318;-72
2023/04/16 11:15:00;;;;;;;4.33;3.93;;;18.10;1.00;;;;;;8363975;28;20205;-73
2023/04/16 11:19:23;;;;;;;4.17;3.77;;;18.40;1.00;;;;;;8380009;28;20204;-68
2023/04/16 11:23:52;;;;;;;4.33;3.50;;;18.80;1.00;;;;;;8365025;28;20204;-69
2023/04/16 11:28:45;;;;;;;4.90;4.37;;;18.90;1.00;;;;;;8351397;28;20224;-69
2023/04/16 11:33:15;;;;;;;4.17;3.40;;;18.10;1.00;;;;;;8317849;28;20188;-74
2023/04/16 11:37:38;;;;;;;4.17;3.30;;;17.80;1.00;;;;;;8307542;28;20265;-70
2023/04/16 11:42:29;;;;;;;3.67;3.13;;;17.90;1.00;;;;;;8264422;28;20234;-69
2023/04/16 12:02:47;;;;;;;3.20;2.40;;;19.50;1.00;;;;;;8068051;28;20240;-73
2023/04/16 12:07:16;;;;;;;2.40;2.00;;;18.60;1.00;;;;;;8006646;29;20288;-72
2023/04/16 12:11:56;;;;;;;2.50;1.80;;;17.60;1.00;;;;;;8009774;29;20249;-70
2023/04/16 12:15:58;;;;;;;2.60;2.20;;;17.80;1.00;;;;;;8031899;29;20253;-72
2023/04/16 12:20:24;;;;;;;7.97;7.27;;;18.40;1.00;;;;;;8089495;29;20286;-73
2023/04/16 12:24:35;;;;;;;2.87;2.57;;;18.70;1.00;;;;;;8345640;28;20213;-72
2023/04/16 12:29:05;;;;;;;10.70;9.80;;;19.20;1.00;;;;;;8382068;28;20209;-73
2023/04/16 12:33:30;;;;;;;2.80;2.50;;;19.50;1.00;;;;;;8390948;28;20200;-73
2023/04/16 12:37:48;;;;;;;2.73;1.90;;;19.70;1.00;;;;;;8380063;28;20200;-73
2023/04/16 12:42:45;;;;;;;1.97;1.73;;;19.80;1.00;;;;;;8315221;28;20194;-73
2023/04/16 12:47:13;;;;;;;1.77;1.60;;;19.80;1.00;;;;;;8232145;28;20218;-72
2023/04/16 12:51:45;;;;;;;2.20;1.70;;;19.70;1.00;;;;;;8264938;28;20277;-72
2023/04/16 12:55:53;;;;;;;2.23;1.70;;;19.50;1.00;;;;;;8240160;28;20254;-73
2023/04/16 13:00:34;;;;;;;;;;;;;;;;;;;;;
2023/04/16 13:05:01;;;;;;;2.40;1.97;;;19.30;1.00;;;;;;8260439;28;20254;-72
2023/04/16 13:14:33;;;;;;;;;;;;;;;;;;;;;
2023/04/16 13:18:44;;;;;;;1.83;1.73;;;18.30;1.00;;;;;;8315938;28;20237;-73
2023/04/16 13:22:57;;;;;;;2.57;1.70;;;18.30;1.00;;;;;;8375122;28;20185;-71
2023/04/16 13:27:02;;;;;;;2.47;2.13;;;18.40;1.00;;;;;;8385639;28;20283;-72
2023/04/16 13:31:24;;;;;;;4.67;3.50;;;18.20;1.00;;;;;;8381847;28;20192;-72
2023/04/16 13:35:53;;;;;;;4.90;4.03;;;17.40;1.00;;;;;;8388960;28;20269;-72
2023/04/16 13:44:29;;;;;;;3.83;3.43;;;15.40;1.00;;;;;;8394078;28;20208;-73
2023/04/16 13:48:33;;;;;;;5.70;4.20;;;15.40;1.00;;;;;;8399309;28;20180;-73
2023/04/16 13:57:23;;;;;;;5.93;4.33;;;16.00;1.00;;;;;;8311382;28;20209;-70
2023/04/16 14:11:15;;;;;;;4.50;3.60;;;14.90;1.00;;;;;;8340108;28;20184;-68
2023/04/16 14:15:28;;;;;;;3.40;3.10;;;15.00;1.00;;;;;;8359471;28;20231;-70
2023/04/16 14:20:09;;;;;;;5.03;4.23;;;14.90;1.00;;;;;;8364813;28;20204;-70
2023/04/16 14:24:31;;;;;;;5.83;5.10;;;14.80;1.00;;;;;;8357971;28;20217;-70
2023/04/16 14:28:50;;;;;;;3.70;3.30;;;14.90;1.00;;;;;;8359367;28;20189;-70
2023/04/16 14:33:13;;;;;;;2.57;2.37;;;14.80;1.00;;;;;;8349636;28;20185;-69
2023/04/16 14:37:41;;;;;;;3.17;2.10;;;14.30;1.00;;;;;;8355184;28;20365;-69
2023/04/16 14:42:30;;;;;;;2.97;1.80;;;13.70;1.00;;;;;;8384257;28;20193;-70
2023/04/16 14:46:42;;;;;;;1.97;1.70;;;13.40;1.00;;;;;;8300067;28;20220;-70
2023/04/16 14:50:44;;;;;;;2.40;1.67;;;13.20;1.00;;;;;;8370055;28;20193;-70
2023/04/16 14:55:24;;;;;;;2.43;1.90;;;13.10;1.00;;;;;;8368144;28;20241;-70
2023/04/16 14:59:55;;;;;;;2.37;1.77;;;13.10;7.90;;;;;;8383363;28;20288;-74
2023/04/16 15:04:01;;;;;;;1.90;1.60;;;13.10;1.00;;;;;;8378507;28;20267;-72
2023/04/16 15:08:34;;;;;;;1.77;1.50;;;13.10;1.00;;;;;;8371465;28;20266;-74
2023/04/16 15:13:32;;;;;;;2.10;1.53;;;13.10;1.00;;;;;;8358827;28;20201;-73
2023/04/16 15:18:02;;;;;;;2.33;1.43;;;13.20;8.30;;;;;;8374046;28;20263;-74
2023/04/16 15:22:07;;;;;;;1.60;1.40;;;13.30;2.70;;;;;;8352685;28;20181;-70
2023/04/16 15:26:32;;;;;;;2.53;1.87;;;13.30;1.00;;;;;;8352741;28;20210;-70
2023/04/16 15:30:41;;;;;;;2.13;1.93;;;13.40;1.00;;;;;;8355956;28;20266;-70
2023/04/16 15:35:08;;;;;;;1.90;1.50;;;13.40;1.00;;;;;;8358087;28;20190;-70
2023/04/16 15:39:10;;;;;;;1.80;1.60;;;13.50;1.00;;;;;;8356028;28;20200;-72
2023/04/16 15:48:34;;;;;;;1.80;1.53;;;13.60;1.00;;;;;;8346931;28;20225;-70
2023/04/16 15:53:11;;;;;;;1.93;1.43;;;13.60;1.00;;;;;;8354087;28;20181;-69
2023/04/16 15:57:35;;;;;;;1.90;1.53;;;13.60;1.00;;;;;;8355546;28;20225;-70
2023/04/16 16:06:40;;;;;;;2.63;2.10;;;13.90;1.00;;;;;;8365840;28;20233;-69
2023/04/16 16:11:24;;;;;;;2.27;1.30;;;13.80;1.00;;;;;;8358007;28;20197;-69
2023/04/16 16:15:52;;;;;;;1.63;1.43;;;13.60;1.00;;;;;;8346463;28;20194;-68
2023/04/16 16:20:35;;;;;;;1.30;1.20;;;13.20;1.00;;;;;;8353686;28;20200;-68
2023/04/16 16:24:47;;;;;;;1.90;1.70;;;13.00;1.00;;;;;;8358351;28;20359;-70
2023/04/16 16:28:58;;;;;;;1.63;1.53;;;12.80;13.00;;;;;;8355609;28;20193;-70
2023/04/16 16:33:19;;;;;;;2.10;1.90;;;12.60;12.30;;;;;;8355149;28;20196;-70
2023/04/16 16:37:20;;;;;;;2.60;2.30;;;12.50;26.90;;;;;;8353112;28;20186;-69
2023/04/16 16:41:43;;;;;;;2.70;2.17;;;12.40;28.00;;;;;;8330706;28;20201;-70
2023/04/16 16:46:06;;;;;;;2.30;1.87;;;12.40;21.50;;;;;;8355584;28;20308;-70
2023/04/16 16:50:13;;;;;;;2.33;2.13;;;12.30;44.00;;;;;;8345425;28;20185;-69
2023/04/16 16:54:47;;;;;;;3.90;2.53;;;12.30;81.90;;;;;;8354025;28;20224;-69
2023/04/16 16:58:54;;;;;;;2.63;2.00;;;12.20;79.00;;;;;;8411826;23;20233;-69
2023/04/16 17:03:10;;;;;;;2.80;2.13;;;12.20;47.20;;;;;;8344470;28;20203;-70
2023/04/16 17:07:39;;;;;;;2.60;2.40;;;12.10;61.70;;;;;;8334563;28;20182;-71
2023/04/16 17:12:01;;;;;;;4.07;2.80;;;12.00;89.30;;;;;;8331582;28;20177;-69
2023/04/16 17:16:45;;;;;;;6.33;3.50;;;11.90;97.50;;;;;;8339780;28;20196;-71
2023/04/16 17:20:41;;;;;;;4.47;3.10;;;11.80;99.90;;;;;;8351017;28;20197;-70
2023/04/16 17:24:49;;;;;;;3.47;2.80;;;11.80;99.90;;;;;;8361538;28;20259;-70
2023/04/16 17:29:14;;;;;;;4.23;3.10;;;11.70;99.90;;;;;;8348940;28;20217;-70
2023/04/16 17:33:23;;;;;;;6.07;4.50;;;11.70;99.90;;;;;;8366668;28;20288;-70
2023/04/16 17:37:48;;;;;;;4.90;3.90;;;11.60;99.90;;;;;;8259746;28;20195;-69
2023/04/16 17:42:12;;;;;;;5.37;3.90;;;11.60;99.90;;;;;;8259891;28;20232;-70
2023/04/16 17:51:18;;;;;;;7.30;4.47;;;11.50;99.90;;;;;;8212934;28;20191;-71
2023/04/16 17:55:22;;;;;;;4.03;2.50;;;11.50;99.90;;;;;;8225229;28;20211;-71
2023/04/16 17:59:26;;;;;;;2.53;2.23;;;11.50;99.90;;;;;;8231674;28;20216;-67
2023/04/16 18:03:34;;;;;;;2.73;2.20;;;11.50;99.90;;;;;;8198632;28;20326;-66
2023/04/16 18:07:48;;;;;;;2.20;1.83;;;11.40;99.90;;;;;;8243396;28;20198;-68
2023/04/16 18:11:52;;;;;;;2.10;1.90;;;11.30;99.90;;;;;;8299964;28;20201;-68
2023/04/16 18:16:03;;;;;;;2.17;1.97;;;11.30;99.90;;;;;;8304299;28;20234;-68
2023/04/16 18:20:41;;;;;;;2.50;2.27;;;11.20;1.00;;;;;;8309630;28;20193;-68
2023/04/16 18:25:00;;;;;;;1.87;1.77;;;11.10;1.00;;;;;;8321128;28;20216;-66
2023/04/16 18:29:04;;;;;;;2.03;1.80;;;11.00;1.00;;;;;;8295509;28;20342;-66
2023/04/16 18:33:05;;;;;;;3.70;2.40;;;10.90;1.00;;;;;;8303571;28;20214;-70
2023/04/16 18:37:06;;;;;;;4.10;3.40;;;10.90;1.00;;;;;;8304274;28;20297;-71
2023/04/16 18:41:20;;;;;;;5.00;3.77;;;10.80;16.70;;;;;;8305506;28;20190;-72
2023/04/16 18:45:26;;;;;;;5.33;3.80;;;10.70;99.90;;;;;;8302068;28;20302;-71
2023/04/16 18:49:32;;;;;;;5.20;4.23;;;10.60;99.90;;;;;;8300379;28;20196;-71
2023/04/16 18:53:44;;;;;;;5.20;3.60;;;10.50;99.90;;;;;;8300130;28;20194;-72
2023/04/16 18:57:52;;;;;;;4.90;3.83;;;10.40;99.90;;;;;;8319869;28;20229;-72
2023/04/16 19:02:12;;;;;;;;;;;;;;;;;;;;;
2023/04/16 19:06:14;;;;;;;6.20;3.90;;;10.20;1.00;;;;;;8330437;28;20275;-71
2023/04/16 19:10:21;;;;;;;6.27;4.33;;;10.10;20.00;;;;;;8316017;28;20272;-70
2023/04/16 19:14:32;;;;;;;4.17;3.77;;;10.00;99.90;;;;;;8325473;28;20197;-71
2023/04/16 19:18:51;;;;;;;4.13;3.73;;;9.90;99.90;;;;;;8327514;28;20193;-71
2023/04/16 19:23:04;;;;;;;4.93;3.97;;;9.70;1.00;;;;;;8315217;28;20194;-70
2023/04/16 19:27:06;;;;;;;5.33;4.17;;;9.70;1.00;;;;;;8322622;28;20293;-72
2023/04/16 19:31:21;;;;;;;4.33;3.93;;;9.60;1.00;;;;;;8323297;28;20209;-72
2023/04/16 19:35:33;;;;;;;4.93;3.87;;;9.60;1.00;;;;;;8330451;28;20192;-71
2023/04/16 19:40:23;;;;;;;5.13;4.20;;;9.50;25.70;;;;;;8336082;28;20265;-69
2023/04/16 19:44:37;;;;;;;4.70;4.07;;;9.60;99.90;;;;;;8184696;28;20229;-70
2023/04/16 19:48:38;;;;;;;6.10;5.47;;;9.60;99.90;;;;;;8331176;28;20207;-72
2023/04/16 19:52:54;;;;;;;5.27;4.70;;;9.60;99.90;;;;;;8329249;28;20180;-71
2023/04/16 19:57:07;;;;;;;5.60;4.47;;;9.60;99.90;;;;;;8317092;28;20222;-72
2023/04/16 20:01:19;;;;;;;5.43;4.63;;;9.70;99.90;;;;;;8320939;28;20215;-71
2023/04/16 20:05:21;;;;;;;6.33;4.67;;;9.70;99.90;;;;;;8316440;28;20204;-70
2023/04/16 20:09:26;;;;;;;6.07;5.10;;;9.60;99.90;;;;;;8331531;28;20185;-72
2023/04/16 20:13:31;;;;;;;6.30;4.70;;;9.60;99.90;;;;;;8325400;28;20196;-68
2023/04/16 20:22:13;;;;;;;5.23;4.53;;;9.60;99.90;;;;;;8333260;28;20272;-68
2023/04/16 20:32:13;;;;;;;5.87;4.23;;;9.60;99.90;;;;;;8297927;28;20283;-68
2023/04/16 20:36:23;;;;;;;5.07;4.07;;;9.40;99.90;;;;;;8318652;28;20198;-68
2023/04/16 20:40:45;;;;;;;5.77;4.43;;;9.40;99.90;;;;;;8311863;28;20203;-68
2023/04/16 20:45:39;;;;;;;4.63;3.90;;;9.30;99.90;;;;;;8330817;28;20207;-68
2023/04/16 20:49:45;;;;;;;5.00;4.33;;;9.30;1.00;;;;;;8328204;28;20279;-68
2023/04/16 20:54:11;;;;;;;5.23;4.27;;;9.30;1.00;;;;;;8314086;28;20256;-68
2023/04/16 20:58:32;;;;;;;5.43;4.37;;;9.30;1.00;;;;;;8311099;28;20221;-69
2023/04/16 21:02:44;;;;;;;6.00;4.77;;;9.20;1.00;;;;;;8317389;28;20192;-68
2023/04/16 21:06:45;;;;;;;4.67;4.20;;;9.20;1.00;;;;;;8328271;28;20217;-69
2023/04/16 21:11:10;;;;;;;4.80;4.13;;;9.20;1.00;;;;;;8328363;28;20183;-69
2023/04/16 21:15:24;;;;;;;5.50;4.23;;;9.10;1.00;;;;;;8328675;28;20193;-69
2023/04/16 21:19:40;;;;;;;5.07;4.13;;;9.00;1.00;;;;;;8330768;28;20200;-70
2023/04/16 21:24:08;;;;;;;4.17;3.63;;;9.00;1.00;;;;;;8317858;28;20212;-67
2023/04/16 21:28:11;;;;;;;4.70;4.03;;;9.00;1.00;;;;;;8327689;28;20211;-70
2023/04/16 21:32:14;;;;;;;4.30;3.90;;;8.90;1.00;;;;;;8317929;28;20196;-69
2023/04/16 21:36:25;;;;;;;5.50;4.53;;;8.90;1.00;;;;;;8326919;28;20201;-69
2023/04/16 21:45:30;;;;;;;4.43;3.70;;;8.80;1.00;;;;;;8319352;28;20211;-69
2023/04/16 21:54:17;;;;;;;;;;;;;;;;;;;;;
2023/04/16 22:08:12;;;;;;;5.27;4.17;;;8.30;99.90;;;;;;8278684;28;20245;-68
2023/04/16 22:12:43;;;;;;;5.10;4.23;;;8.20;99.90;;;;;;8267555;28;20221;-68
2023/04/16 22:16:44;;;;;;;5.77;4.80;;;8.10;99.90;;;;;;8315467;28;20256;-67
2023/04/16 22:25:55;;;;;;;;;;;;;;;;;;;;;
2023/04/16 22:30:16;;;;;;;5.73;4.70;;;8.10;99.90;;;;;;8317734;28;20217;-68
2023/04/16 22:34:20;;;;;;;5.90;4.47;;;8.10;1.00;;;;;;8298409;28;20190;-70
2023/04/16 22:38:42;;;;;;;6.47;5.27;;;8.10;99.90;;;;;;8304905;28;20202;-70
2023/04/16 22:42:46;;;;;;;6.17;4.70;;;8.10;1.00;;;;;;8329399;28;20197;-70
2023/04/16 22:47:06;;;;;;;6.77;5.23;;;8.10;99.90;;;;;;8323811;28;20233;-72
2023/04/16 22:51:32;;;;;;;7.03;5.43;;;8.00;99.90;;;;;;8330855;28;20197;-72
2023/04/16 23:04:14;;;;;;;5.37;4.63;;;7.80;1.00;;;;;;8300092;28;20226;-69
2023/04/16 23:09:06;;;;;;;5.03;4.30;;;7.70;99.90;;;;;;8267922;28;20297;-68
2023/04/16 23:13:19;;;;;;;5.07;4.33;;;7.60;99.90;;;;;;8278959;28;20210;-69
2023/04/16 23:18:08;;;;;;;;;;;;;;;;;;;;;
2023/04/16 23:22:21;;;;;;;6.50;4.57;;;7.50;99.90;;;;;;8207119;28;20241;-69
2023/04/16 23:26:42;;;;;;;5.67;5.10;;;7.40;99.90;;;;;;8271155;28;20241;-69
2023/04/16 23:30:58;;;;;;;7.37;4.77;;;7.30;99.90;;;;;;8269635;28;20183;-68
2023/04/16 23:35:00;;;;;;;5.37;4.70;;;7.30;99.90;;;;;;8274165;28;20202;-71
2023/04/16 23:39:18;;;;;;;6.37;4.63;;;7.20;61.90;;;;;;8278799;28;20190;-71
2023/04/16 23:48:31;;;;;;;5.80;4.57;;;7.00;1.00;;;;;;8263558;28;20227;-69
2023/04/16 23:52:35;;;;;;;5.40;4.30;;;6.90;99.90;;;;;;8275928;28;20274;-71
